createdAt,value
2022-09-24T00:02:16.795Z,80.17
2022-09-24T00:05:25.646Z,80.44
2022-09-24T00:08:31.151Z,80.82
2022-09-24T00:11:36.905Z,81.12
2022-09-24T00:14:45.877Z,81.97
2022-09-24T00:17:56.291Z,82.01
2022-09-24T00:21:03.837Z,81.78
2022-09-24T00:24:33.352Z,82.10
2022-09-24T00:27:36.250Z,81.83
2022-09-24T00:30:43.332Z,81.40
2022-09-24T00:33:52.534Z,82.11
2022-09-24T00:36:58.155Z,82.04
2022-09-24T00:40:04.325Z,81.32
2022-09-24T00:43:30.256Z,81.01
2022-09-24T00:46:45.770Z,80.96
2022-09-24T00:49:56.987Z,81.03
2022-09-24T00:53:10.524Z,80.82
2022-09-24T00:56:25.481Z,80.61
2022-09-24T00:59:34.271Z,81.33
2022-09-24T01:02:47.582Z,81.70
2022-09-24T01:05:56.181Z,81.61
2022-09-24T01:09:04.035Z,81.76
2022-09-24T01:12:29.317Z,82.40
2022-09-24T01:15:49.063Z,82.83
2022-09-24T01:19:13.122Z,83.01
2022-09-24T01:22:46.295Z,82.97
2022-09-24T01:26:19.308Z,82.64
2022-09-24T01:29:53.544Z,82.53
2022-09-24T01:33:06.285Z,82.83
2022-09-24T01:36:14.428Z,82.78
2022-09-24T01:39:26.344Z,82.18
2022-09-24T01:42:37.150Z,82.16
2022-09-24T01:45:46.108Z,81.52
2022-09-24T01:48:51.860Z,81.83
2022-09-24T01:52:10.227Z,82.23
2022-09-24T01:55:24.746Z,82.48
2022-09-24T01:58:39.220Z,82.87
2022-09-24T02:02:01.256Z,83.39
2022-09-24T02:05:21.366Z,83.45
2022-09-24T02:08:36.160Z,83.17
2022-09-24T02:11:42.037Z,83.15
2022-09-24T02:14:55.342Z,82.68
2022-09-24T02:18:12.223Z,82.75
2022-09-24T02:21:23.232Z,82.47
2022-09-24T02:24:40.485Z,82.73
2022-09-24T02:27:46.258Z,83.14
2022-09-24T02:31:02.065Z,83.34
2022-09-24T02:34:25.746Z,83.31
2022-09-24T02:37:32.239Z,83.72
2022-09-24T02:40:37.848Z,83.55
2022-09-24T02:43:46.310Z,83.02
2022-09-24T02:46:52.349Z,83.19
2022-09-24T02:50:00.546Z,83.31
2022-09-24T02:53:06.370Z,82.91
2022-09-24T02:56:12.062Z,83.26
2022-09-24T02:59:19.521Z,83.66
2022-09-24T03:02:25.162Z,84.05
2022-09-24T03:05:33.419Z,83.95
2022-09-24T03:08:38.857Z,83.44
2022-09-24T03:11:44.395Z,83.28
2022-09-24T03:14:49.887Z,83.26
2022-09-24T03:17:55.368Z,83.25
2022-09-24T03:21:07.378Z,83.53
2022-09-24T03:24:12.997Z,83.37
2022-09-24T03:27:21.760Z,83.17
2022-09-24T03:30:39.743Z,83.18
2022-09-24T03:33:49.225Z,82.43
2022-09-24T03:36:57.335Z,82.31
2022-09-24T03:40:02.809Z,82.45
2022-09-24T03:43:08.343Z,82.54
2022-09-24T03:46:16.273Z,83.16
2022-09-24T03:49:23.662Z,82.66
2022-09-24T03:52:32.301Z,82.29
2022-09-24T03:55:38.855Z,82.59
2022-09-24T03:58:48.394Z,82.35
2022-09-24T04:01:53.956Z,82.18
2022-09-24T04:05:00.317Z,82.05
2022-09-24T04:08:08.726Z,81.70
2022-09-24T04:11:14.253Z,82.34
2022-09-24T04:14:20.047Z,82.31
2022-09-24T04:17:31.473Z,81.20
2022-09-24T04:20:38.239Z,81.11
2022-09-24T04:23:46.739Z,80.34
2022-09-24T04:26:52.283Z,80.99
2022-09-24T04:29:59.774Z,80.87
2022-09-24T04:33:10.121Z,80.80
2022-09-24T04:36:15.809Z,80.35
2022-09-24T04:39:27.210Z,80.45
2022-09-24T04:42:34.074Z,80.91
2022-09-24T04:45:40.581Z,81.35
2022-09-24T04:48:49.170Z,81.31
2022-09-24T04:51:54.881Z,80.62
2022-09-24T04:55:05.409Z,80.42
2022-09-24T04:58:11.572Z,80.72
2022-09-24T05:01:20.453Z,80.88
2022-09-24T05:04:26.011Z,80.03
2022-09-24T05:07:31.583Z,79.24
2022-09-24T05:10:39.722Z,79.89
2022-09-24T05:13:45.485Z,80.75
2022-09-24T05:16:50.987Z,80.25
2022-09-24T05:19:58.022Z,79.53
2022-09-24T05:23:10.439Z,79.38
2022-09-24T05:26:48.663Z,79.91
2022-09-24T05:29:54.272Z,79.68
2022-09-24T05:33:00.159Z,79.68
2022-09-24T05:36:09.422Z,78.26
2022-09-24T05:39:15.906Z,77.81
2022-09-24T05:42:26.831Z,77.79
2022-09-24T05:45:32.944Z,77.43
2022-09-24T05:48:46.787Z,77.41
2022-09-24T05:51:52.718Z,77.93
2022-09-24T05:54:58.207Z,79.42
2022-09-24T05:58:13.592Z,79.54
2022-09-24T06:01:19.832Z,80.11
2022-09-24T06:04:25.345Z,79.96
2022-09-24T06:07:31.264Z,80.10
2022-09-24T06:10:36.980Z,78.89
2022-09-24T06:13:45.241Z,78.55
2022-09-24T06:16:56.765Z,78.34
2022-09-24T06:20:02.383Z,77.44
2022-09-24T06:23:08.855Z,77.91
2022-09-24T06:26:17.067Z,77.55
2022-09-24T06:29:25.194Z,76.52
2022-09-24T06:32:30.786Z,74.73
2022-09-24T06:35:38.753Z,75.24
2022-09-24T06:38:46.144Z,75.71
2022-09-24T06:41:51.800Z,74.75
2022-09-24T06:44:59.917Z,74.08
2022-09-24T06:48:08.880Z,73.72
2022-09-24T06:51:14.418Z,71.66
2022-09-24T06:54:20.563Z,70.82
2022-09-24T06:57:28.954Z,71.50
2022-09-24T07:00:45.478Z,71.39
2022-09-24T07:03:59.086Z,72.08
2022-09-24T07:07:20.174Z,70.47
2022-09-24T07:10:27.654Z,68.76
2022-09-24T07:13:33.252Z,66.62
2022-09-24T07:16:41.690Z,67.43
2022-09-24T07:19:50.485Z,66.73
2022-09-24T07:22:56.077Z,68.04
2022-09-24T07:26:01.954Z,67.22
2022-09-24T07:29:07.757Z,66.91
2022-09-24T07:32:16.594Z,67.33
2022-09-24T07:35:30.433Z,65.94
2022-09-24T07:38:43.527Z,66.46
2022-09-24T07:42:06.137Z,65.56
2022-09-24T07:45:21.898Z,66.37
2022-09-24T07:48:32.624Z,68.73
2022-09-24T07:51:50.453Z,67.24
2022-09-24T07:54:55.931Z,66.09
2022-09-24T07:58:01.535Z,66.83
2022-09-24T08:01:07.179Z,66.38
2022-09-24T08:04:15.471Z,67.99
2022-09-24T08:07:21.127Z,68.27
2022-09-24T08:10:28.839Z,69.37
2022-09-24T08:13:34.705Z,68.33
2022-09-24T08:16:40.842Z,68.07
2022-09-24T08:19:49.329Z,67.80
2022-09-24T08:22:54.933Z,67.63
2022-09-24T08:26:00.553Z,67.40
2022-09-24T08:29:06.185Z,67.64
2022-09-24T08:32:11.924Z,66.14
2022-09-24T08:35:23.254Z,64.21
2022-09-24T08:38:28.873Z,63.44
2022-09-24T08:41:59.291Z,65.01
2022-09-24T08:45:21.555Z,63.58
2022-09-24T08:48:36.501Z,62.36
2022-09-24T08:52:00.622Z,61.80
2022-09-24T08:55:17.416Z,63.02
2022-09-24T08:58:44.472Z,62.06
2022-09-24T09:02:06.960Z,62.06
2022-09-24T09:05:28.172Z,63.00
2022-09-24T09:09:06.732Z,61.37
2022-09-24T09:12:20.899Z,60.06
2022-09-24T09:15:33.044Z,59.64
2022-09-24T09:18:44.991Z,60.81
2022-09-24T09:22:00.167Z,60.90
2022-09-24T09:25:24.942Z,59.40
2022-09-24T09:28:32.744Z,57.91
2022-09-24T09:31:59.230Z,57.30
2022-09-24T09:35:20.211Z,57.06
2022-09-24T09:38:42.125Z,58.83
2022-09-24T09:42:04.614Z,56.61
2022-09-24T09:45:33.162Z,55.09
2022-09-24T09:48:49.213Z,56.08
2022-09-24T09:52:01.266Z,55.71
2022-09-24T09:55:07.645Z,56.73
2022-09-24T09:58:27.470Z,57.33
2022-09-24T10:01:39.784Z,57.34
2022-09-24T10:04:51.059Z,57.82
2022-09-24T10:07:59.055Z,57.19
2022-09-24T10:11:07.847Z,56.70
2022-09-24T10:14:20.890Z,55.69
2022-09-24T10:17:34.791Z,54.64
2022-09-24T10:20:40.734Z,53.54
2022-09-24T10:23:50.211Z,54.55
2022-09-24T10:26:57.715Z,55.82
2022-09-24T10:30:31.085Z,50.83
2022-09-24T10:33:42.543Z,52.79
2022-09-24T10:36:55.673Z,51.38
2022-09-24T10:40:03.355Z,49.25
2022-09-24T10:43:10.518Z,47.20
2022-09-24T10:46:48.580Z,46.16
2022-09-24T10:50:23.607Z,46.80
2022-09-24T10:53:54.696Z,45.53
2022-09-24T10:57:09.895Z,44.87
2022-09-24T11:00:24.411Z,42.05
2022-09-24T11:04:03.757Z,41.11
2022-09-24T11:07:41.372Z,42.43
2022-09-24T11:11:18.045Z,43.58
2022-09-24T11:14:49.200Z,41.99
2022-09-24T11:18:21.945Z,40.81
2022-09-24T11:22:05.965Z,40.33
2022-09-24T11:25:35.648Z,40.62
2022-09-24T11:29:31.103Z,39.35
2022-09-24T11:33:04.305Z,38.14
2022-09-24T11:36:40.200Z,36.38
2022-09-24T11:40:07.723Z,37.80
2022-09-24T11:43:48.522Z,38.22
2022-09-24T11:47:21.615Z,38.78
2022-09-24T11:50:48.154Z,39.65
2022-09-24T11:54:09.358Z,41.30
2022-09-24T11:57:24.870Z,40.55
2022-09-24T12:00:43.565Z,40.46
2022-09-24T12:04:01.821Z,39.43
2022-09-24T12:07:16.942Z,40.63
2022-09-24T12:10:43.397Z,40.28
2022-09-24T12:14:02.822Z,37.01
2022-09-24T12:17:19.937Z,38.23
2022-09-24T12:20:32.361Z,37.98
2022-09-24T12:23:49.273Z,38.39
2022-09-24T12:27:11.182Z,39.40
2022-09-24T12:30:58.965Z,40.57
2022-09-24T12:34:25.239Z,40.67
2022-09-24T12:37:40.994Z,40.19
2022-09-24T12:41:28.483Z,40.31
2022-09-24T12:44:52.870Z,38.20
2022-09-24T12:48:04.181Z,38.52
2022-09-24T12:51:22.353Z,38.86
2022-09-24T12:54:38.423Z,38.32
2022-09-24T12:57:54.073Z,37.31
2022-09-24T13:01:17.209Z,37.83
2022-09-24T13:04:44.624Z,38.32
2022-09-24T13:08:30.613Z,39.60
2022-09-24T13:11:45.441Z,40.14
2022-09-24T13:15:06.886Z,40.53
2022-09-24T13:18:33.489Z,40.54
2022-09-24T13:21:39.310Z,41.26
2022-09-24T13:24:52.748Z,41.75
2022-09-24T13:28:10.612Z,42.33
2022-09-24T13:31:46.380Z,42.57
2022-09-24T13:34:56.262Z,44.11
2022-09-24T13:38:18.898Z,44.03
2022-09-24T13:41:45.489Z,44.13
2022-09-24T13:44:58.869Z,45.43
2022-09-24T13:48:17.444Z,44.85
2022-09-24T13:51:44.454Z,45.26
2022-09-24T13:55:00.898Z,45.03
2022-09-24T13:58:09.079Z,45.25
2022-09-24T14:01:19.713Z,44.43
2022-09-24T14:04:27.159Z,46.42
2022-09-24T14:07:35.380Z,45.53
2022-09-24T14:10:41.561Z,45.25
2022-09-24T14:13:48.040Z,44.98
2022-09-24T14:16:55.324Z,44.54
2022-09-24T14:20:01.092Z,46.18
2022-09-24T14:23:13.186Z,45.89
2022-09-24T14:26:33.555Z,47.54
2022-09-24T14:29:49.314Z,46.31
2022-09-24T14:33:02.063Z,47.40
2022-09-24T14:36:08.549Z,46.90
2022-09-24T14:39:17.601Z,47.23
2022-09-24T14:42:34.713Z,47.35
2022-09-24T14:45:42.301Z,47.43
2022-09-24T14:48:48.003Z,47.21
2022-09-24T14:52:00.054Z,47.36
2022-09-24T14:55:19.020Z,47.19
2022-09-24T14:58:40.922Z,46.82
2022-09-24T15:01:51.114Z,47.68
2022-09-24T15:05:06.211Z,48.38
2022-09-24T15:08:30.722Z,48.20
2022-09-24T15:11:43.546Z,48.18
2022-09-24T15:15:01.309Z,48.34
2022-09-24T15:18:07.357Z,49.03
2022-09-24T15:21:13.656Z,49.76
2022-09-24T15:24:20.482Z,49.49
2022-09-24T15:27:32.341Z,51.02
2022-09-24T15:30:40.125Z,51.28
2022-09-24T15:33:45.770Z,51.30
2022-09-24T15:36:55.480Z,51.38
2022-09-24T15:40:10.216Z,52.13
2022-09-24T15:43:25.717Z,52.29
2022-09-24T15:46:31.358Z,53.09
2022-09-24T15:49:36.931Z,53.51
2022-09-24T15:52:51.687Z,54.36
2022-09-24T15:56:02.038Z,55.01
2022-09-24T15:59:16.422Z,54.66
2022-09-24T16:02:30.032Z,55.38
2022-09-24T16:05:36.283Z,56.06
2022-09-24T16:08:42.218Z,56.42
2022-09-24T16:11:47.760Z,56.28
2022-09-24T16:14:59.287Z,56.75
2022-09-24T16:18:05.150Z,57.45
2022-09-24T16:21:11.586Z,57.30
2022-09-24T16:24:17.047Z,57.35
2022-09-24T16:27:22.655Z,57.63
2022-09-24T16:30:40.963Z,57.59
2022-09-24T16:33:46.506Z,57.07
2022-09-24T16:36:52.047Z,56.31
2022-09-24T16:39:58.035Z,57.10
2022-09-24T16:43:03.681Z,58.03
2022-09-24T16:46:19.546Z,58.93
2022-09-24T16:49:27.011Z,60.62
2022-09-24T16:52:33.632Z,61.18
2022-09-24T16:55:42.118Z,60.59
2022-09-24T16:58:49.844Z,60.70
2022-09-24T17:01:58.168Z,61.06
2022-09-24T17:05:03.912Z,61.53
2022-09-24T17:08:09.538Z,61.32
2022-09-24T17:11:12.541Z,61.13
2022-09-24T17:14:20.186Z,60.83
2022-09-24T17:17:28.446Z,61.98
2022-09-24T17:20:33.927Z,62.38
2022-09-24T17:23:39.782Z,61.81
2022-09-24T17:26:45.860Z,60.71
2022-09-24T17:29:51.384Z,61.98
2022-09-24T17:32:59.487Z,61.56
2022-09-24T17:36:09.725Z,63.26
2022-09-24T17:39:16.820Z,62.49
2022-09-24T17:42:22.316Z,62.41
2022-09-24T17:45:27.829Z,63.04
2022-09-24T17:48:40.358Z,63.42
2022-09-24T17:51:49.625Z,63.04
2022-09-24T17:54:55.335Z,62.67
2022-09-24T17:58:00.884Z,63.06
2022-09-24T18:01:10.417Z,63.36
2022-09-24T18:04:22.583Z,62.89
2022-09-24T18:07:30.108Z,61.99
2022-09-24T18:10:42.736Z,61.66
2022-09-24T18:14:01.041Z,62.29
2022-09-24T18:17:06.753Z,63.22
2022-09-24T18:20:15.070Z,63.16
2022-09-24T18:23:21.706Z,63.92
2022-09-24T18:26:31.408Z,62.92
2022-09-24T18:29:37.548Z,64.24
2022-09-24T18:32:43.420Z,64.67
2022-09-24T18:35:51.462Z,65.57
2022-09-24T18:38:57.083Z,65.61
2022-09-24T18:42:02.593Z,65.92
2022-09-24T18:45:12.431Z,66.31
2022-09-24T18:48:18.292Z,67.31
2022-09-24T18:51:30.129Z,66.92
2022-09-24T18:54:35.937Z,67.62
2022-09-24T18:57:41.465Z,67.87
2022-09-24T19:00:54.911Z,67.81
2022-09-24T19:04:03.074Z,67.66
2022-09-24T19:07:12.606Z,67.76
2022-09-24T19:10:19.222Z,67.42
2022-09-24T19:13:26.665Z,66.73
2022-09-24T19:16:38.505Z,66.58
2022-09-24T19:19:51.559Z,65.99
2022-09-24T19:23:02.588Z,65.53
2022-09-24T19:26:10.441Z,65.96
2022-09-24T19:29:18.116Z,66.42
2022-09-24T19:32:23.711Z,66.00
2022-09-24T19:35:32.205Z,65.73
2022-09-24T19:38:41.493Z,65.56
2022-09-24T19:41:47.859Z,65.42
2022-09-24T19:44:54.732Z,65.83
2022-09-24T19:48:00.578Z,65.37
2022-09-24T19:51:10.229Z,65.02
2022-09-24T19:54:18.344Z,64.73
2022-09-24T19:57:23.838Z,65.00
2022-09-24T20:00:29.366Z,64.74
2022-09-24T20:03:36.026Z,65.36
2022-09-24T20:06:42.298Z,65.79
2022-09-24T20:09:50.412Z,65.99
2022-09-24T20:12:58.503Z,66.28
2022-09-24T20:16:07.796Z,66.45
2022-09-24T20:19:16.414Z,65.80
2022-09-24T20:22:22.006Z,65.52
2022-09-24T20:25:43.005Z,66.37
2022-09-24T20:28:48.482Z,65.79
2022-09-24T20:31:57.211Z,65.59
2022-09-24T20:35:02.707Z,65.24
2022-09-24T20:38:20.806Z,65.30
2022-09-24T20:41:29.394Z,64.84
2022-09-24T20:44:35.860Z,64.93
2022-09-24T20:47:41.469Z,65.06
2022-09-24T20:50:47.137Z,65.12
2022-09-24T20:53:54.000Z,64.86
2022-09-24T20:57:02.404Z,65.15
2022-09-24T21:00:10.377Z,65.18
2022-09-24T21:03:42.055Z,64.91
2022-09-24T21:06:41.279Z,65.60
2022-09-24T21:09:48.977Z,65.29
2022-09-24T21:12:59.779Z,64.55
2022-09-24T21:16:10.287Z,65.06
2022-09-24T21:19:18.266Z,65.50
2022-09-24T21:22:24.536Z,65.34
2022-09-24T21:25:52.712Z,66.71
2022-09-24T21:29:03.192Z,68.67
2022-09-24T21:32:08.759Z,69.37
2022-09-24T21:35:17.722Z,69.75
2022-09-24T21:38:28.757Z,71.39
2022-09-24T21:41:40.062Z,72.53
2022-09-24T21:44:48.230Z,73.04
2022-09-24T21:47:55.211Z,73.38
2022-09-24T21:51:07.583Z,73.04
2022-09-24T21:54:23.172Z,73.57
2022-09-24T21:57:28.648Z,74.91
2022-09-24T22:00:36.742Z,75.59
2022-09-24T22:03:42.274Z,75.66
2022-09-24T22:06:48.918Z,76.23
2022-09-24T22:09:54.456Z,76.38
2022-09-24T22:13:00.689Z,76.19
2022-09-24T22:16:11.812Z,76.62
2022-09-24T22:19:17.831Z,76.14
2022-09-24T22:22:23.668Z,76.48
2022-09-24T22:25:29.296Z,76.77
2022-09-24T22:28:36.010Z,76.59
2022-09-24T22:31:44.157Z,76.88
2022-09-24T22:35:02.080Z,77.22
2022-09-24T22:38:10.470Z,77.68
2022-09-24T22:41:16.014Z,77.28
2022-09-24T22:44:22.204Z,77.73
2022-09-24T22:47:30.293Z,77.99
2022-09-24T22:50:35.821Z,77.78
2022-09-24T22:53:44.500Z,78.21
2022-09-24T22:56:50.279Z,78.44
2022-09-24T22:59:56.183Z,78.87
2022-09-24T23:03:04.393Z,79.30
2022-09-24T23:06:12.084Z,79.21
2022-09-24T23:09:17.746Z,79.28
2022-09-24T23:12:23.404Z,79.65
2022-09-24T23:15:29.172Z,79.45
2022-09-24T23:18:37.725Z,79.82
2022-09-24T23:21:47.022Z,79.58
2022-09-24T23:24:53.769Z,79.33
2022-09-24T23:28:01.571Z,79.25
2022-09-24T23:31:07.948Z,78.91
2022-09-24T23:34:17.102Z,78.85
2022-09-24T23:37:22.821Z,78.28
2022-09-24T23:40:30.092Z,77.92
2022-09-24T23:43:36.509Z,77.94
2022-09-24T23:46:43.104Z,77.72
2022-09-24T23:49:51.235Z,77.28
2022-09-24T23:52:57.051Z,76.72
2022-09-24T23:56:05.186Z,76.47
2022-09-24T23:59:11.319Z,75.54
